sensor_id;sensor_type;location;lat;lon;timestamp;temperature;humidity
43338;DHT22;28933;52.492;13.434;2022-11-09T00:00:44;14.00;96.50
43338;DHT22;28933;52.492;13.434;2022-11-09T00:03:10;14.00;96.50
43338;DHT22;28933;52.492;13.434;2022-11-09T00:05:36;14.00;96.50
43338;DHT22;28933;52.492;13.434;2022-11-09T00:08:06;14.00;96.40
43338;DHT22;28933;52.492;13.434;2022-11-09T00:10:33;14.00;96.40
43338;DHT22;28933;52.492;13.434;2022-11-09T00:12:59;14.00;96.40
43338;DHT22;28933;52.492;13.434;2022-11-09T00:15:24;14.00;96.40
43338;DHT22;28933;52.492;13.434;2022-11-09T00:17:50;14.00;96.50
43338;DHT22;28933;52.492;13.434;2022-11-09T00:20:16;14.00;96.40
43338;DHT22;28933;52.492;13.434;2022-11-09T00:22:46;14.00;96.40
43338;DHT22;28933;52.492;13.434;2022-11-09T00:25:12;13.90;96.30
43338;DHT22;28933;52.492;13.434;2022-11-09T00:27:38;14.00;96.40
43338;DHT22;28933;52.492;13.434;2022-11-09T00:30:04;14.00;96.40
43338;DHT22;28933;52.492;13.434;2022-11-09T00:32:30;13.90;96.30
43338;DHT22;28933;52.492;13.434;2022-11-09T00:34:55;14.00;96.40
43338;DHT22;28933;52.492;13.434;2022-11-09T00:37:21;14.00;96.40
43338;DHT22;28933;52.492;13.434;2022-11-09T00:39:47;13.90;96.30
43338;DHT22;28933;52.492;13.434;2022-11-09T00:42:12;14.00;96.30
43338;DHT22;28933;52.492;13.434;2022-11-09T00:44:38;13.90;96.30
43338;DHT22;28933;52.492;13.434;2022-11-09T00:53:47;14.00;96.30
43338;DHT22;28933;52.492;13.434;2022-11-09T00:56:13;13.90;96.30
43338;DHT22;28933;52.492;13.434;2022-11-09T00:58:40;14.00;96.30
43338;DHT22;28933;52.492;13.434;2022-11-09T01:01:11;13.90;96.30
43338;DHT22;28933;52.492;13.434;2022-11-09T01:03:37;14.00;96.30
43338;DHT22;28933;52.492;13.434;2022-11-09T01:06:04;14.00;96.20
43338;DHT22;28933;52.492;13.434;2022-11-09T01:08:31;13.90;96.30
43338;DHT22;28933;52.492;13.434;2022-11-09T01:10:56;13.90;96.20
43338;DHT22;28933;52.492;13.434;2022-11-09T01:13:22;13.90;96.20
43338;DHT22;28933;52.492;13.434;2022-11-09T01:15:50;14.00;96.20
43338;DHT22;28933;52.492;13.434;2022-11-09T01:18:18;14.00;96.20
43338;DHT22;28933;52.492;13.434;2022-11-09T01:20:47;14.00;96.20
43338;DHT22;28933;52.492;13.434;2022-11-09T01:23:15;13.90;96.10
43338;DHT22;28933;52.492;13.434;2022-11-09T01:25:41;13.90;96.10
43338;DHT22;28933;52.492;13.434;2022-11-09T01:28:07;13.90;96.20
43338;DHT22;28933;52.492;13.434;2022-11-09T01:30:43;13.90;96.20
43338;DHT22;28933;52.492;13.434;2022-11-09T01:33:11;13.80;96.10
43338;DHT22;28933;52.492;13.434;2022-11-09T01:35:38;13.90;96.20
43338;DHT22;28933;52.492;13.434;2022-11-09T01:38:06;13.80;96.10
43338;DHT22;28933;52.492;13.434;2022-11-09T01:40:34;13.80;96.10
43338;DHT22;28933;52.492;13.434;2022-11-09T01:43:18;13.80;96.10
43338;DHT22;28933;52.492;13.434;2022-11-09T01:45:59;13.80;96.10
43338;DHT22;28933;52.492;13.434;2022-11-09T01:48:38;13.80;96.10
43338;DHT22;28933;52.492;13.434;2022-11-09T01:51:28;13.80;96.10
43338;DHT22;28933;52.492;13.434;2022-11-09T01:53:59;13.70;96.10
43338;DHT22;28933;52.492;13.434;2022-11-09T01:56:26;13.70;96.10
43338;DHT22;28933;52.492;13.434;2022-11-09T01:58:56;13.70;96.20
43338;DHT22;28933;52.492;13.434;2022-11-09T02:01:23;13.70;96.20
43338;DHT22;28933;52.492;13.434;2022-11-09T02:04:19;13.70;96.20
43338;DHT22;28933;52.492;13.434;2022-11-09T02:06:47;13.70;96.10
43338;DHT22;28933;52.492;13.434;2022-11-09T02:09:22;13.60;96.10
43338;DHT22;28933;52.492;13.434;2022-11-09T02:11:50;13.60;96.10
43338;DHT22;28933;52.492;13.434;2022-11-09T02:14:15;13.60;96.10
43338;DHT22;28933;52.492;13.434;2022-11-09T02:16:41;13.50;96.10
43338;DHT22;28933;52.492;13.434;2022-11-09T02:19:08;13.60;96.20
43338;DHT22;28933;52.492;13.434;2022-11-09T02:21:34;13.50;96.20
43338;DHT22;28933;52.492;13.434;2022-11-09T02:23:59;13.50;96.30
43338;DHT22;28933;52.492;13.434;2022-11-09T02:26:37;13.50;96.30
43338;DHT22;28933;52.492;13.434;2022-11-09T02:29:07;13.50;96.30
43338;DHT22;28933;52.492;13.434;2022-11-09T02:31:43;13.40;96.30
43338;DHT22;28933;52.492;13.434;2022-11-09T02:34:13;13.40;96.40
43338;DHT22;28933;52.492;13.434;2022-11-09T02:36:39;13.40;96.40
43338;DHT22;28933;52.492;13.434;2022-11-09T02:39:05;13.40;96.40
43338;DHT22;28933;52.492;13.434;2022-11-09T02:41:32;13.40;96.40
43338;DHT22;28933;52.492;13.434;2022-11-09T02:44:02;13.40;96.40
43338;DHT22;28933;52.492;13.434;2022-11-09T02:46:33;13.30;96.40
43338;DHT22;28933;52.492;13.434;2022-11-09T02:49:00;13.30;96.50
43338;DHT22;28933;52.492;13.434;2022-11-09T02:51:25;13.30;96.70
43338;DHT22;28933;52.492;13.434;2022-11-09T02:53:51;13.30;96.50
43338;DHT22;28933;52.492;13.434;2022-11-09T02:56:16;13.20;96.60
43338;DHT22;28933;52.492;13.434;2022-11-09T02:58:44;13.20;96.60
43338;DHT22;28933;52.492;13.434;2022-11-09T03:01:09;13.20;96.60
43338;DHT22;28933;52.492;13.434;2022-11-09T03:03:35;13.10;96.60
43338;DHT22;28933;52.492;13.434;2022-11-09T03:06:02;13.20;96.70
43338;DHT22;28933;52.492;13.434;2022-11-09T03:08:28;13.20;96.70
43338;DHT22;28933;52.492;13.434;2022-11-09T03:10:54;13.10;96.60
43338;DHT22;28933;52.492;13.434;2022-11-09T03:13:20;13.10;96.60
43338;DHT22;28933;52.492;13.434;2022-11-09T03:15:45;13.00;96.60
43338;DHT22;28933;52.492;13.434;2022-11-09T03:18:11;13.00;97.00
43338;DHT22;28933;52.492;13.434;2022-11-09T03:20:36;13.00;96.90
43338;DHT22;28933;52.492;13.434;2022-11-09T03:23:02;13.00;96.90
43338;DHT22;28933;52.492;13.434;2022-11-09T03:25:28;13.00;96.90
43338;DHT22;28933;52.492;13.434;2022-11-09T03:28:02;13.00;96.90
43338;DHT22;28933;52.492;13.434;2022-11-09T03:30:28;12.90;97.00
43338;DHT22;28933;52.492;13.434;2022-11-09T03:33:05;13.00;97.00
43338;DHT22;28933;52.492;13.434;2022-11-09T03:35:35;13.00;97.00
43338;DHT22;28933;52.492;13.434;2022-11-09T03:38:01;13.00;97.00
43338;DHT22;28933;52.492;13.434;2022-11-09T03:40:27;13.10;97.00
43338;DHT22;28933;52.492;13.434;2022-11-09T03:42:53;13.10;97.00
43338;DHT22;28933;52.492;13.434;2022-11-09T03:45:18;13.10;97.00
43338;DHT22;28933;52.492;13.434;2022-11-09T03:47:45;13.10;97.00
43338;DHT22;28933;52.492;13.434;2022-11-09T03:50:12;13.10;96.90
43338;DHT22;28933;52.492;13.434;2022-11-09T03:52:38;13.10;97.00
43338;DHT22;28933;52.492;13.434;2022-11-09T03:55:05;13.20;97.00
43338;DHT22;28933;52.492;13.434;2022-11-09T03:57:31;13.20;97.00
43338;DHT22;28933;52.492;13.434;2022-11-09T03:59:57;13.20;97.00
43338;DHT22;28933;52.492;13.434;2022-11-09T04:02:23;13.30;96.90
43338;DHT22;28933;52.492;13.434;2022-11-09T04:04:49;13.30;96.90
43338;DHT22;28933;52.492;13.434;2022-11-09T04:07:14;13.30;96.90
43338;DHT22;28933;52.492;13.434;2022-11-09T04:09:40;13.40;96.90
43338;DHT22;28933;52.492;13.434;2022-11-09T04:12:06;13.40;96.90
43338;DHT22;28933;52.492;13.434;2022-11-09T04:14:33;13.40;96.90
43338;DHT22;28933;52.492;13.434;2022-11-09T04:16:58;13.50;97.00
43338;DHT22;28933;52.492;13.434;2022-11-09T04:19:24;13.50;96.90
43338;DHT22;28933;52.492;13.434;2022-11-09T04:21:50;13.50;97.00
43338;DHT22;28933;52.492;13.434;2022-11-09T04:24:16;13.50;97.00
43338;DHT22;28933;52.492;13.434;2022-11-09T04:26:41;13.50;97.00
43338;DHT22;28933;52.492;13.434;2022-11-09T04:29:07;13.60;97.00
43338;DHT22;28933;52.492;13.434;2022-11-09T04:31:32;13.60;97.00
43338;DHT22;28933;52.492;13.434;2022-11-09T04:33:58;13.60;97.00
43338;DHT22;28933;52.492;13.434;2022-11-09T04:36:24;13.60;97.10
43338;DHT22;28933;52.492;13.434;2022-11-09T04:38:49;13.60;97.10
43338;DHT22;28933;52.492;13.434;2022-11-09T04:41:15;13.60;97.10
43338;DHT22;28933;52.492;13.434;2022-11-09T04:43:41;13.60;97.20
43338;DHT22;28933;52.492;13.434;2022-11-09T04:46:06;13.60;97.30
43338;DHT22;28933;52.492;13.434;2022-11-09T04:48:52;13.60;97.50
43338;DHT22;28933;52.492;13.434;2022-11-09T04:51:20;13.60;97.70
43338;DHT22;28933;52.492;13.434;2022-11-09T04:53:45;13.60;97.90
43338;DHT22;28933;52.492;13.434;2022-11-09T04:56:12;13.60;98.00
43338;DHT22;28933;52.492;13.434;2022-11-09T04:58:38;13.60;98.10
43338;DHT22;28933;52.492;13.434;2022-11-09T05:01:07;13.60;98.20
43338;DHT22;28933;52.492;13.434;2022-11-09T05:03:33;13.60;98.40
43338;DHT22;28933;52.492;13.434;2022-11-09T05:06:00;13.60;98.50
43338;DHT22;28933;52.492;13.434;2022-11-09T05:08:27;13.60;98.60
43338;DHT22;28933;52.492;13.434;2022-11-09T05:10:56;13.60;98.70
43338;DHT22;28933;52.492;13.434;2022-11-09T05:13:24;13.60;98.90
43338;DHT22;28933;52.492;13.434;2022-11-09T05:15:50;13.60;98.90
43338;DHT22;28933;52.492;13.434;2022-11-09T05:18:15;13.50;99.00
43338;DHT22;28933;52.492;13.434;2022-11-09T05:20:41;13.60;99.00
43338;DHT22;28933;52.492;13.434;2022-11-09T05:23:08;13.60;99.20
43338;DHT22;28933;52.492;13.434;2022-11-09T05:25:52;13.60;99.20
43338;DHT22;28933;52.492;13.434;2022-11-09T05:28:18;13.50;99.20
43338;DHT22;28933;52.492;13.434;2022-11-09T05:30:43;13.50;99.30
43338;DHT22;28933;52.492;13.434;2022-11-09T05:33:09;13.60;99.40
43338;DHT22;28933;52.492;13.434;2022-11-09T05:35:35;13.50;99.60
43338;DHT22;28933;52.492;13.434;2022-11-09T05:38:00;13.50;99.40
43338;DHT22;28933;52.492;13.434;2022-11-09T05:40:26;13.50;99.50
43338;DHT22;28933;52.492;13.434;2022-11-09T05:42:51;13.50;99.60
43338;DHT22;28933;52.492;13.434;2022-11-09T05:45:17;13.50;99.70
43338;DHT22;28933;52.492;13.434;2022-11-09T05:47:50;13.50;99.80
43338;DHT22;28933;52.492;13.434;2022-11-09T05:50:16;13.60;99.90
43338;DHT22;28933;52.492;13.434;2022-11-09T05:52:41;13.50;99.90
43338;DHT22;28933;52.492;13.434;2022-11-09T05:55:07;13.60;99.90
43338;DHT22;28933;52.492;13.434;2022-11-09T05:57:33;13.60;99.90
43338;DHT22;28933;52.492;13.434;2022-11-09T05:59:59;13.50;99.90
43338;DHT22;28933;52.492;13.434;2022-11-09T06:02:24;13.60;99.90
43338;DHT22;28933;52.492;13.434;2022-11-09T06:04:50;13.60;99.90
43338;DHT22;28933;52.492;13.434;2022-11-09T06:07:16;13.60;99.90
43338;DHT22;28933;52.492;13.434;2022-11-09T06:09:43;13.60;99.90
43338;DHT22;28933;52.492;13.434;2022-11-09T06:12:08;13.60;99.90
43338;DHT22;28933;52.492;13.434;2022-11-09T06:14:34;13.70;99.90
43338;DHT22;28933;52.492;13.434;2022-11-09T06:16:59;13.60;99.90
43338;DHT22;28933;52.492;13.434;2022-11-09T06:19:25;13.60;99.90
43338;DHT22;28933;52.492;13.434;2022-11-09T06:21:51;13.60;99.90
43338;DHT22;28933;52.492;13.434;2022-11-09T06:24:16;13.70;99.90
43338;DHT22;28933;52.492;13.434;2022-11-09T06:26:42;13.60;99.90
43338;DHT22;28933;52.492;13.434;2022-11-09T06:29:07;13.70;99.90
43338;DHT22;28933;52.492;13.434;2022-11-09T06:31:34;13.70;99.90
43338;DHT22;28933;52.492;13.434;2022-11-09T06:34:00;13.70;99.90
43338;DHT22;28933;52.492;13.434;2022-11-09T06:36:26;13.70;99.90
43338;DHT22;28933;52.492;13.434;2022-11-09T06:38:51;13.70;99.90
43338;DHT22;28933;52.492;13.434;2022-11-09T06:41:19;13.80;99.90
43338;DHT22;28933;52.492;13.434;2022-11-09T06:43:45;13.70;99.90
43338;DHT22;28933;52.492;13.434;2022-11-09T06:46:11;13.70;99.90
43338;DHT22;28933;52.492;13.434;2022-11-09T06:48:37;13.80;99.90
43338;DHT22;28933;52.492;13.434;2022-11-09T06:51:05;13.80;99.90
43338;DHT22;28933;52.492;13.434;2022-11-09T06:53:32;13.80;99.90
43338;DHT22;28933;52.492;13.434;2022-11-09T06:56:00;13.80;99.90
43338;DHT22;28933;52.492;13.434;2022-11-09T06:58:27;13.80;99.90
43338;DHT22;28933;52.492;13.434;2022-11-09T07:00:54;13.80;99.90
43338;DHT22;28933;52.492;13.434;2022-11-09T07:03:21;13.80;99.90
43338;DHT22;28933;52.492;13.434;2022-11-09T07:05:48;13.80;99.90
43338;DHT22;28933;52.492;13.434;2022-11-09T07:08:15;13.80;99.90
43338;DHT22;28933;52.492;13.434;2022-11-09T07:10:41;13.80;99.90
43338;DHT22;28933;52.492;13.434;2022-11-09T07:13:07;13.80;99.90
43338;DHT22;28933;52.492;13.434;2022-11-09T07:15:33;13.80;99.90
43338;DHT22;28933;52.492;13.434;2022-11-09T07:18:00;13.80;99.90
43338;DHT22;28933;52.492;13.434;2022-11-09T07:20:27;13.90;99.90
43338;DHT22;28933;52.492;13.434;2022-11-09T07:22:56;13.80;99.90
43338;DHT22;28933;52.492;13.434;2022-11-09T07:25:22;13.80;99.90
43338;DHT22;28933;52.492;13.434;2022-11-09T07:27:49;13.80;99.90
43338;DHT22;28933;52.492;13.434;2022-11-09T07:30:15;13.80;99.90
43338;DHT22;28933;52.492;13.434;2022-11-09T07:32:42;13.80;99.90
43338;DHT22;28933;52.492;13.434;2022-11-09T07:35:08;13.80;99.90
43338;DHT22;28933;52.492;13.434;2022-11-09T07:37:34;13.80;99.90
43338;DHT22;28933;52.492;13.434;2022-11-09T07:40:00;13.80;99.90
43338;DHT22;28933;52.492;13.434;2022-11-09T07:42:27;13.80;99.90
43338;DHT22;28933;52.492;13.434;2022-11-09T07:44:54;13.80;99.90
43338;DHT22;28933;52.492;13.434;2022-11-09T07:47:19;13.70;99.90
43338;DHT22;28933;52.492;13.434;2022-11-09T07:49:45;13.70;99.90
43338;DHT22;28933;52.492;13.434;2022-11-09T07:52:12;13.70;99.90
43338;DHT22;28933;52.492;13.434;2022-11-09T07:54:38;13.70;99.90
43338;DHT22;28933;52.492;13.434;2022-11-09T07:57:04;13.80;99.90
43338;DHT22;28933;52.492;13.434;2022-11-09T07:59:30;13.80;99.90
43338;DHT22;28933;52.492;13.434;2022-11-09T08:01:56;13.80;99.90
43338;DHT22;28933;52.492;13.434;2022-11-09T08:04:22;13.90;99.90
43338;DHT22;28933;52.492;13.434;2022-11-09T08:06:51;13.90;99.90
43338;DHT22;28933;52.492;13.434;2022-11-09T08:09:18;13.90;99.90
43338;DHT22;28933;52.492;13.434;2022-11-09T08:11:46;13.90;99.90
43338;DHT22;28933;52.492;13.434;2022-11-09T08:14:13;13.90;99.90
43338;DHT22;28933;52.492;13.434;2022-11-09T08:16:38;14.00;99.90
43338;DHT22;28933;52.492;13.434;2022-11-09T08:19:04;14.00;99.90
43338;DHT22;28933;52.492;13.434;2022-11-09T08:21:30;14.00;99.90
43338;DHT22;28933;52.492;13.434;2022-11-09T08:23:55;14.00;99.90
43338;DHT22;28933;52.492;13.434;2022-11-09T08:26:21;14.00;99.90
43338;DHT22;28933;52.492;13.434;2022-11-09T08:28:46;14.00;99.90
43338;DHT22;28933;52.492;13.434;2022-11-09T08:31:12;14.00;99.90
43338;DHT22;28933;52.492;13.434;2022-11-09T08:33:40;14.00;99.90
43338;DHT22;28933;52.492;13.434;2022-11-09T08:36:16;14.00;99.90
43338;DHT22;28933;52.492;13.434;2022-11-09T08:38:42;14.00;99.90
43338;DHT22;28933;52.492;13.434;2022-11-09T08:41:09;14.00;99.90
43338;DHT22;28933;52.492;13.434;2022-11-09T08:43:35;14.00;99.90
43338;DHT22;28933;52.492;13.434;2022-11-09T08:46:01;14.00;99.90
43338;DHT22;28933;52.492;13.434;2022-11-09T08:48:27;14.10;99.90
43338;DHT22;28933;52.492;13.434;2022-11-09T08:50:55;14.10;99.90
43338;DHT22;28933;52.492;13.434;2022-11-09T08:53:22;14.10;99.90
43338;DHT22;28933;52.492;13.434;2022-11-09T08:55:48;14.10;99.90
43338;DHT22;28933;52.492;13.434;2022-11-09T08:58:14;14.10;99.90
43338;DHT22;28933;52.492;13.434;2022-11-09T09:00:39;14.10;99.90
43338;DHT22;28933;52.492;13.434;2022-11-09T09:03:05;14.10;99.90
43338;DHT22;28933;52.492;13.434;2022-11-09T09:05:33;14.10;99.90
43338;DHT22;28933;52.492;13.434;2022-11-09T09:07:59;14.10;99.90
43338;DHT22;28933;52.492;13.434;2022-11-09T09:10:25;14.10;99.90
43338;DHT22;28933;52.492;13.434;2022-11-09T09:12:50;14.10;99.90
43338;DHT22;28933;52.492;13.434;2022-11-09T09:15:16;14.10;99.90
43338;DHT22;28933;52.492;13.434;2022-11-09T09:17:42;14.20;99.90
43338;DHT22;28933;52.492;13.434;2022-11-09T09:20:09;14.20;99.90
43338;DHT22;28933;52.492;13.434;2022-11-09T09:22:35;14.20;99.90
43338;DHT22;28933;52.492;13.434;2022-11-09T09:25:01;14.30;99.90
43338;DHT22;28933;52.492;13.434;2022-11-09T09:27:27;14.30;99.90
43338;DHT22;28933;52.492;13.434;2022-11-09T09:29:54;14.30;99.90
43338;DHT22;28933;52.492;13.434;2022-11-09T09:32:20;14.40;99.90
43338;DHT22;28933;52.492;13.434;2022-11-09T09:34:46;14.40;99.90
43338;DHT22;28933;52.492;13.434;2022-11-09T09:37:12;14.40;99.90
43338;DHT22;28933;52.492;13.434;2022-11-09T09:39:38;14.50;99.90
43338;DHT22;28933;52.492;13.434;2022-11-09T09:42:06;14.50;99.90
43338;DHT22;28933;52.492;13.434;2022-11-09T09:44:53;14.60;99.90
43338;DHT22;28933;52.492;13.434;2022-11-09T09:47:33;14.60;99.90
43338;DHT22;28933;52.492;13.434;2022-11-09T09:50:12;14.60;99.90
43338;DHT22;28933;52.492;13.434;2022-11-09T09:55:43;14.60;99.90
43338;DHT22;28933;52.492;13.434;2022-11-09T09:58:37;14.60;99.90
43338;DHT22;28933;52.492;13.434;2022-11-09T10:01:15;14.60;99.90
43338;DHT22;28933;52.492;13.434;2022-11-09T10:03:41;14.50;99.90
43338;DHT22;28933;52.492;13.434;2022-11-09T10:09:11;14.60;99.90
43338;DHT22;28933;52.492;13.434;2022-11-09T10:26:58;14.50;99.90
43338;DHT22;28933;52.492;13.434;2022-11-09T10:32:21;14.60;99.90
43338;DHT22;28933;52.492;13.434;2022-11-09T10:34:51;14.60;99.90
43338;DHT22;28933;52.492;13.434;2022-11-09T10:42:54;14.70;99.90
43338;DHT22;28933;52.492;13.434;2022-11-09T10:45:34;14.80;99.90
43338;DHT22;28933;52.492;13.434;2022-11-09T10:48:01;14.80;99.90
43338;DHT22;28933;52.492;13.434;2022-11-09T10:50:53;14.80;99.90
43338;DHT22;28933;52.492;13.434;2022-11-09T10:53:21;14.80;99.90
43338;DHT22;28933;52.492;13.434;2022-11-09T10:56:25;14.90;99.90
43338;DHT22;28933;52.492;13.434;2022-11-09T10:58:52;14.90;99.90
43338;DHT22;28933;52.492;13.434;2022-11-09T11:01:22;14.90;99.90
43338;DHT22;28933;52.492;13.434;2022-11-09T11:03:54;14.90;99.90
43338;DHT22;28933;52.492;13.434;2022-11-09T11:13:50;15.00;99.90
43338;DHT22;28933;52.492;13.434;2022-11-09T11:16:33;15.00;99.90
43338;DHT22;28933;52.492;13.434;2022-11-09T11:18:59;15.00;99.90
43338;DHT22;28933;52.492;13.434;2022-11-09T11:21:27;15.00;99.90
43338;DHT22;28933;52.492;13.434;2022-11-09T11:24:16;15.00;99.90
43338;DHT22;28933;52.492;13.434;2022-11-09T11:27:05;15.10;99.90
43338;DHT22;28933;52.492;13.434;2022-11-09T11:29:47;15.10;99.90
43338;DHT22;28933;52.492;13.434;2022-11-09T11:32:16;15.20;99.90
43338;DHT22;28933;52.492;13.434;2022-11-09T11:34:42;15.20;99.90
43338;DHT22;28933;52.492;13.434;2022-11-09T11:37:19;15.30;99.90
43338;DHT22;28933;52.492;13.434;2022-11-09T11:42:38;15.50;99.90
43338;DHT22;28933;52.492;13.434;2022-11-09T11:45:19;15.50;99.90
43338;DHT22;28933;52.492;13.434;2022-11-09T11:55:53;15.70;99.90
43338;DHT22;28933;52.492;13.434;2022-11-09T11:58:50;15.70;99.90
43338;DHT22;28933;52.492;13.434;2022-11-09T12:01:35;15.80;99.90
43338;DHT22;28933;52.492;13.434;2022-11-09T12:04:13;15.80;99.90
43338;DHT22;28933;52.492;13.434;2022-11-09T12:06:55;15.80;99.90
43338;DHT22;28933;52.492;13.434;2022-11-09T12:15:32;15.80;99.90
43338;DHT22;28933;52.492;13.434;2022-11-09T12:18:29;15.80;99.90
43338;DHT22;28933;52.492;13.434;2022-11-09T12:36:50;15.70;99.90
43338;DHT22;28933;52.492;13.434;2022-11-09T12:42:04;15.80;99.90
43338;DHT22;28933;52.492;13.434;2022-11-09T12:44:36;15.80;99.90
43338;DHT22;28933;52.492;13.434;2022-11-09T12:47:13;15.90;99.90
43338;DHT22;28933;52.492;13.434;2022-11-09T12:49:43;15.90;99.90
43338;DHT22;28933;52.492;13.434;2022-11-09T12:52:16;15.90;99.90
43338;DHT22;28933;52.492;13.434;2022-11-09T12:54:47;16.00;99.90
43338;DHT22;28933;52.492;13.434;2022-11-09T12:57:20;16.00;99.90
43338;DHT22;28933;52.492;13.434;2022-11-09T12:59:55;16.00;99.90
43338;DHT22;28933;52.492;13.434;2022-11-09T13:02:36;16.10;99.90
43338;DHT22;28933;52.492;13.434;2022-11-09T13:05:07;16.10;99.90
43338;DHT22;28933;52.492;13.434;2022-11-09T13:07:48;16.10;99.90
43338;DHT22;28933;52.492;13.434;2022-11-09T13:10:30;16.10;99.90
43338;DHT22;28933;52.492;13.434;2022-11-09T13:13:19;16.20;99.90
43338;DHT22;28933;52.492;13.434;2022-11-09T13:18:52;16.20;99.90
43338;DHT22;28933;52.492;13.434;2022-11-09T13:23:48;16.20;99.90
43338;DHT22;28933;52.492;13.434;2022-11-09T13:34:51;16.20;99.90
43338;DHT22;28933;52.492;13.434;2022-11-09T13:43:00;16.20;99.90
43338;DHT22;28933;52.492;13.434;2022-11-09T13:48:02;16.20;99.90
43338;DHT22;28933;52.492;13.434;2022-11-09T13:50:30;16.20;99.80
43338;DHT22;28933;52.492;13.434;2022-11-09T13:52:58;16.20;99.80
43338;DHT22;28933;52.492;13.434;2022-11-09T13:55:39;16.20;99.80
43338;DHT22;28933;52.492;13.434;2022-11-09T13:58:37;16.10;99.80
43338;DHT22;28933;52.492;13.434;2022-11-09T14:01:05;16.10;99.80
43338;DHT22;28933;52.492;13.434;2022-11-09T14:03:30;16.10;99.90
43338;DHT22;28933;52.492;13.434;2022-11-09T14:05:58;16.10;99.90
43338;DHT22;28933;52.492;13.434;2022-11-09T14:08:28;16.10;99.90
43338;DHT22;28933;52.492;13.434;2022-11-09T14:14:08;16.00;99.90
43338;DHT22;28933;52.492;13.434;2022-11-09T14:22:15;16.00;99.90
43338;DHT22;28933;52.492;13.434;2022-11-09T14:24:42;16.00;99.90
43338;DHT22;28933;52.492;13.434;2022-11-09T14:34:46;15.80;99.90
43338;DHT22;28933;52.492;13.434;2022-11-09T14:37:15;15.80;99.90
43338;DHT22;28933;52.492;13.434;2022-11-09T14:39:46;15.80;99.90
43338;DHT22;28933;52.492;13.434;2022-11-09T14:42:19;15.80;99.90
43338;DHT22;28933;52.492;13.434;2022-11-09T14:44:45;15.70;99.90
43338;DHT22;28933;52.492;13.434;2022-11-09T14:47:17;15.70;99.90
43338;DHT22;28933;52.492;13.434;2022-11-09T14:49:43;15.70;99.90
43338;DHT22;28933;52.492;13.434;2022-11-09T14:52:24;15.60;99.90
43338;DHT22;28933;52.492;13.434;2022-11-09T14:54:52;15.60;99.90
43338;DHT22;28933;52.492;13.434;2022-11-09T14:57:19;15.50;99.90
43338;DHT22;28933;52.492;13.434;2022-11-09T14:59:46;15.50;99.90
43338;DHT22;28933;52.492;13.434;2022-11-09T15:02:14;15.50;99.90
43338;DHT22;28933;52.492;13.434;2022-11-09T15:07:34;15.40;99.90
43338;DHT22;28933;52.492;13.434;2022-11-09T15:10:03;15.40;99.90
43338;DHT22;28933;52.492;13.434;2022-11-09T15:12:31;15.30;99.90
43338;DHT22;28933;52.492;13.434;2022-11-09T15:15:03;15.30;99.90
43338;DHT22;28933;52.492;13.434;2022-11-09T15:17:37;15.20;99.90
43338;DHT22;28933;52.492;13.434;2022-11-09T15:33:25;15.00;99.90
43338;DHT22;28933;52.492;13.434;2022-11-09T15:35:58;14.90;99.90
43338;DHT22;28933;52.492;13.434;2022-11-09T15:38:40;14.90;99.90
43338;DHT22;28933;52.492;13.434;2022-11-09T15:41:18;14.90;99.90
43338;DHT22;28933;52.492;13.434;2022-11-09T15:43:44;14.90;99.90
43338;DHT22;28933;52.492;13.434;2022-11-09T15:46:13;14.80;99.90
43338;DHT22;28933;52.492;13.434;2022-11-09T15:48:39;14.80;99.90
43338;DHT22;28933;52.492;13.434;2022-11-09T15:51:05;14.80;99.90
43338;DHT22;28933;52.492;13.434;2022-11-09T15:53:31;14.70;99.90
43338;DHT22;28933;52.492;13.434;2022-11-09T15:55:58;14.70;99.90
43338;DHT22;28933;52.492;13.434;2022-11-09T15:58:23;14.60;99.90
43338;DHT22;28933;52.492;13.434;2022-11-09T16:00:49;14.60;99.90
43338;DHT22;28933;52.492;13.434;2022-11-09T16:03:14;14.60;99.90
43338;DHT22;28933;52.492;13.434;2022-11-09T16:05:43;14.60;99.90
43338;DHT22;28933;52.492;13.434;2022-11-09T16:08:10;14.50;99.90
43338;DHT22;28933;52.492;13.434;2022-11-09T16:10:36;14.50;99.90
43338;DHT22;28933;52.492;13.434;2022-11-09T16:13:04;14.50;99.90
43338;DHT22;28933;52.492;13.434;2022-11-09T16:15:31;14.40;99.90
43338;DHT22;28933;52.492;13.434;2022-11-09T16:17:57;14.40;99.90
43338;DHT22;28933;52.492;13.434;2022-11-09T16:20:24;14.40;99.90
43338;DHT22;28933;52.492;13.434;2022-11-09T16:22:50;14.30;99.90
43338;DHT22;28933;52.492;13.434;2022-11-09T16:25:16;14.40;99.90
43338;DHT22;28933;52.492;13.434;2022-11-09T16:27:43;14.30;99.90
43338;DHT22;28933;52.492;13.434;2022-11-09T16:30:09;14.30;99.90
43338;DHT22;28933;52.492;13.434;2022-11-09T16:32:36;14.30;99.90
43338;DHT22;28933;52.492;13.434;2022-11-09T16:35:03;14.30;99.90
43338;DHT22;28933;52.492;13.434;2022-11-09T16:37:33;14.30;99.90
43338;DHT22;28933;52.492;13.434;2022-11-09T16:40:00;14.20;99.90
43338;DHT22;28933;52.492;13.434;2022-11-09T16:42:32;14.20;99.90
43338;DHT22;28933;52.492;13.434;2022-11-09T16:45:02;14.20;99.90
43338;DHT22;28933;52.492;13.434;2022-11-09T16:47:29;14.20;99.90
43338;DHT22;28933;52.492;13.434;2022-11-09T16:49:55;14.20;99.90
43338;DHT22;28933;52.492;13.434;2022-11-09T16:52:20;14.20;99.90
43338;DHT22;28933;52.492;13.434;2022-11-09T16:54:47;14.20;99.90
43338;DHT22;28933;52.492;13.434;2022-11-09T16:57:13;14.20;99.90
43338;DHT22;28933;52.492;13.434;2022-11-09T16:59:39;14.20;99.90
43338;DHT22;28933;52.492;13.434;2022-11-09T17:02:05;14.20;99.90
43338;DHT22;28933;52.492;13.434;2022-11-09T17:04:31;14.20;99.90
43338;DHT22;28933;52.492;13.434;2022-11-09T17:06:56;14.20;99.90
43338;DHT22;28933;52.492;13.434;2022-11-09T17:09:22;14.10;99.90
43338;DHT22;28933;52.492;13.434;2022-11-09T17:11:48;14.10;99.90
43338;DHT22;28933;52.492;13.434;2022-11-09T17:14:13;14.10;99.90
43338;DHT22;28933;52.492;13.434;2022-11-09T17:16:39;14.10;99.90
43338;DHT22;28933;52.492;13.434;2022-11-09T17:19:06;14.00;99.90
43338;DHT22;28933;52.492;13.434;2022-11-09T17:21:32;14.00;99.90
43338;DHT22;28933;52.492;13.434;2022-11-09T17:23:58;14.00;99.90
43338;DHT22;28933;52.492;13.434;2022-11-09T17:26:25;14.00;99.90
43338;DHT22;28933;52.492;13.434;2022-11-09T17:28:51;13.90;99.90
43338;DHT22;28933;52.492;13.434;2022-11-09T17:31:21;13.90;99.90
43338;DHT22;28933;52.492;13.434;2022-11-09T17:33:47;13.90;99.90
43338;DHT22;28933;52.492;13.434;2022-11-09T17:36:15;13.90;99.90
43338;DHT22;28933;52.492;13.434;2022-11-09T17:38:41;13.90;99.90